Pagina principală
METAR-TAF:

METAR-TAF

Aeroporturi :

Lake Charles, Louisiana, Statele Unite ale Americii

Latitudine: 30-13N, longitudine: 093-09W, elevație: 4 m

Observații meteo curente

Raportul a fost făcut în urmă cu 23 de minute, la 03:15 UTC
Vânt 4 kt de la Sud-est
Temperatură 27°C
Umiditate 89%
Presiune 1015 hPa
Vizibilitate: 11.3 km
Cer senin
aer cețos

METAR: KCWF 280315Z AUTO 14004KT 7SM BR CLR 27/25 A2996 RMK AO2 T02700254

Ora: 22:38 (03:38 UTC)


TAF: lipsă

Observații și prognoze meteo pentru peste 4.000 de aeroporturi (rapoarte METAR și TAF).

Stațiile disponibile sunt reprezentate pe hartă prin puncte galbene și roșii.

Țineți indicatorul mouse-ului pe punctul dorit pentru a vedea denumirea stației.

Apoi, faceți clic pentru a vedea observațiile și prognozele meteorologice.

Pentru a schimba harta: Pentru mărire, faceți clic pe butoanele verzi cu cruce neagră; pentru micșorare, pe butonul verde cu o liniuță; pentru hărți învecinate, pe săgețile verzi.


METAR-TAF: